KAWM/AWM METAR and TAF weather

Enter ICAO airport designator
Station Type Date Time Source
KAWM METAR 2019/08/22 15:03 UTC NOAA

KAWM 221503Z AUTO 19008KT 10SM BKN010 28/25 A2999 RMK AO2 CIG 008V013 T02780250


Station Type Date Time Source
KAWM Decoded METAR 2019/08/22 15:03 UTC NOAA

Station name not available
Aug 22, 2019 - 11:03 AM EDT / 2019.08.22 1503 UTC
Wind: from the S (190 degrees) at 9 MPH (8 KT):0
Visibility: 10 mile(s):0
Sky conditions: mostly cloudy
Temperature: 82.0 F (27.8 C)
Dew Point: 77.0 F (25.0 C)
Relative Humidity: 84%
Pressure (altimeter): 29.99 in. Hg (1015 hPa)
ob: KAWM 221503Z AUTO 19008KT 10SM BKN010 28/25 A2999 RMK AO2 CIG 008V013 T02780250
cycle: 15

Station Type Date Time Source
KAWM TAF UTC NOAA

Error!

Example: see airport list